createdAt,value
2019-01-13T00:02:20.310Z,99.63
2019-01-13T00:04:47.732Z,43.33
2019-01-13T00:07:15.481Z,23.50
2019-01-13T00:09:42.894Z,22.50
2019-01-13T00:12:10.287Z,24.43
2019-01-13T00:14:37.725Z,18.07
2019-01-13T00:17:05.350Z,21.10
2019-01-13T00:19:33.254Z,17.97
2019-01-13T00:22:00.967Z,16.73
2019-01-13T00:24:28.370Z,18.33
2019-01-13T00:26:55.771Z,15.80
2019-01-13T00:29:23.221Z,22.03
2019-01-13T00:31:50.603Z,13.90
2019-01-13T00:34:18.013Z,19.23
2019-01-13T00:36:45.437Z,8.93
2019-01-13T00:39:12.847Z,9.63
2019-01-13T00:41:40.238Z,14.60
2019-01-13T00:44:07.832Z,13.60
2019-01-13T00:46:35.231Z,12.53
2019-01-13T00:49:02.645Z,13.57
2019-01-13T00:51:30.126Z,13.30
2019-01-13T00:53:57.562Z,15.47
2019-01-13T00:56:24.958Z,17.57
2019-01-13T00:58:52.394Z,12.07
2019-01-13T01:01:19.818Z,10.07
2019-01-13T01:03:48.177Z,10.10
2019-01-13T01:06:15.703Z,14.70
2019-01-13T01:08:43.120Z,16.30
2019-01-13T01:11:10.500Z,17.43
2019-01-13T01:13:38.398Z,13.23
2019-01-13T01:16:06.300Z,23.53
2019-01-13T01:18:34.062Z,22.53
2019-01-13T01:21:01.894Z,10.53
2019-01-13T01:23:29.301Z,12.87
2019-01-13T01:25:56.703Z,16.33
2019-01-13T01:28:24.181Z,13.17
2019-01-13T01:30:51.615Z,15.87
2019-01-13T01:33:25.927Z,13.20
2019-01-13T01:35:48.234Z,9.40
2019-01-13T01:38:15.631Z,11.93
2019-01-13T01:40:43.045Z,12.10
2019-01-13T01:43:10.712Z,12.43
2019-01-13T01:45:38.130Z,14.90
2019-01-13T01:48:05.526Z,10.30
2019-01-13T01:50:34.161Z,9.87
2019-01-13T01:53:02.024Z,16.23
2019-01-13T01:55:29.572Z,10.47
2019-01-13T01:57:57.005Z,9.50
2019-01-13T02:00:24.622Z,9.73
2019-01-13T02:02:52.018Z,10.33
2019-01-13T02:05:19.725Z,16.53
2019-01-13T02:07:47.089Z,10.70
2019-01-13T02:10:17.012Z,8.87
2019-01-13T02:12:44.758Z,13.20
2019-01-13T02:15:18.101Z,10.90
2019-01-13T02:17:46.141Z,17.13
2019-01-13T02:20:15.489Z,14.97
2019-01-13T02:22:42.898Z,9.37
2019-01-13T02:25:12.324Z,9.27
2019-01-13T02:27:40.070Z,11.87
2019-01-13T02:30:10.114Z,11.43
2019-01-13T02:32:37.514Z,9.50
2019-01-13T02:35:05.526Z,13.03
2019-01-13T02:37:32.941Z,10.03
2019-01-13T02:40:00.338Z,19.57
2019-01-13T02:42:27.782Z,15.80
2019-01-13T02:44:55.188Z,10.13
2019-01-13T02:47:22.578Z,12.03
2019-01-13T02:49:50.137Z,12.50
2019-01-13T02:52:17.535Z,11.80
2019-01-13T02:54:44.939Z,10.77
2019-01-13T02:57:12.404Z,18.83
2019-01-13T02:59:39.799Z,15.30
2019-01-13T03:02:07.311Z,9.17
2019-01-13T03:04:34.808Z,7.70
2019-01-13T03:07:02.241Z,7.60
2019-01-13T03:09:29.635Z,12.87
2019-01-13T03:11:58.876Z,13.57
2019-01-13T03:14:26.268Z,14.40
2019-01-13T03:16:53.675Z,11.80
2019-01-13T03:19:21.103Z,10.37
2019-01-13T03:21:48.881Z,15.13
2019-01-13T03:24:16.287Z,11.53
2019-01-13T03:26:43.878Z,14.00
2019-01-13T03:29:11.287Z,14.27
2019-01-13T03:31:38.696Z,14.10
2019-01-13T03:34:06.367Z,11.77
2019-01-13T03:36:33.759Z,10.77
2019-01-13T03:39:01.163Z,15.97
2019-01-13T03:41:28.606Z,12.73
2019-01-13T03:43:55.991Z,12.10
2019-01-13T03:46:23.425Z,11.70
2019-01-13T03:48:51.016Z,14.47
2019-01-13T03:51:18.423Z,9.93
2019-01-13T03:53:45.827Z,9.90
2019-01-13T03:56:13.279Z,15.30
2019-01-13T03:58:40.691Z,13.73
2019-01-13T04:01:08.116Z,11.47
2019-01-13T04:03:35.465Z,8.67
2019-01-13T04:06:02.862Z,8.63
2019-01-13T04:08:30.279Z,13.33
2019-01-13T04:10:57.898Z,9.93
2019-01-13T04:13:25.306Z,8.83
2019-01-13T04:15:58.155Z,7.93
2019-01-13T04:18:26.706Z,7.87
2019-01-13T04:20:54.323Z,8.33
2019-01-13T04:23:21.733Z,8.10
2019-01-13T04:25:49.312Z,6.30
2019-01-13T04:28:16.719Z,9.30
2019-01-13T04:30:44.109Z,9.47
2019-01-13T04:33:11.563Z,7.83
2019-01-13T04:35:38.954Z,7.37
2019-01-13T04:38:06.349Z,5.67
2019-01-13T04:40:33.807Z,6.30
2019-01-13T04:43:01.234Z,5.87
2019-01-13T04:45:28.635Z,5.47
2019-01-13T04:47:56.102Z,7.83
2019-01-13T04:50:23.501Z,7.70
2019-01-13T04:52:50.906Z,10.60
2019-01-13T04:55:18.359Z,12.43
2019-01-13T04:57:46.244Z,8.00
2019-01-13T05:00:15.853Z,6.33
2019-01-13T05:05:39.647Z,6.13
2019-01-13T05:08:07.090Z,6.37
2019-01-13T05:10:34.490Z,6.93
2019-01-13T05:13:01.948Z,4.53
2019-01-13T05:15:32.920Z,4.23
2019-01-13T05:18:02.070Z,3.37
2019-01-13T05:20:29.817Z,3.20
2019-01-13T05:22:57.322Z,3.27
2019-01-13T05:25:24.727Z,3.57
2019-01-13T05:27:52.218Z,3.77
2019-01-13T05:30:21.735Z,3.20
2019-01-13T05:32:51.558Z,3.70
2019-01-13T05:35:21.513Z,2.67
2019-01-13T05:37:48.907Z,4.13
2019-01-13T05:40:19.047Z,4.93
2019-01-13T05:42:46.485Z,4.80
2019-01-13T05:45:15.829Z,4.30
2019-01-13T05:47:43.242Z,5.63
2019-01-13T05:50:12.915Z,3.80
2019-01-13T05:52:41.539Z,2.90
2019-01-13T05:55:09.032Z,4.30
2019-01-13T05:57:36.453Z,2.57
2019-01-13T06:00:06.306Z,7.83
2019-01-13T06:02:33.734Z,2.97
2019-01-13T06:05:01.175Z,3.40
2019-01-13T06:07:28.581Z,4.73
2019-01-13T06:09:55.976Z,4.97
2019-01-13T06:12:23.605Z,4.33
2019-01-13T06:14:51.005Z,4.30
2019-01-13T06:17:18.405Z,4.10
2019-01-13T06:19:45.997Z,3.43
2019-01-13T06:22:14.087Z,3.40
2019-01-13T06:24:41.469Z,4.83
2019-01-13T06:27:08.898Z,5.40
2019-01-13T06:29:36.302Z,4.43
2019-01-13T06:32:03.702Z,2.80
2019-01-13T06:34:31.138Z,3.30
2019-01-13T06:36:58.538Z,5.43
2019-01-13T06:39:25.938Z,4.40
2019-01-13T06:41:53.493Z,5.57
2019-01-13T06:44:20.894Z,6.50
2019-01-13T06:46:48.290Z,5.43
2019-01-13T06:49:15.898Z,10.77
2019-01-13T06:51:43.302Z,5.80
2019-01-13T06:54:10.711Z,7.93
2019-01-13T06:56:38.333Z,3.70
2019-01-13T06:59:05.733Z,3.40
2019-01-13T07:01:33.128Z,6.90
2019-01-13T07:04:00.560Z,4.63
2019-01-13T07:06:27.989Z,6.53
2019-01-13T07:08:55.391Z,8.30
2019-01-13T07:11:23.005Z,4.70
2019-01-13T07:13:50.432Z,4.60
2019-01-13T07:16:17.829Z,6.20
2019-01-13T07:18:45.269Z,9.83
2019-01-13T07:21:12.920Z,7.53
2019-01-13T07:23:40.346Z,7.00
2019-01-13T07:26:07.767Z,16.17
2019-01-13T07:28:35.173Z,20.60
2019-01-13T07:31:02.568Z,17.87
2019-01-13T07:33:30.587Z,12.70
2019-01-13T07:35:58.004Z,9.23
2019-01-13T07:38:25.411Z,7.00
2019-01-13T07:40:52.906Z,9.67
2019-01-13T07:43:20.297Z,9.40
2019-01-13T07:45:47.724Z,11.83
2019-01-13T07:48:15.183Z,15.03
2019-01-13T07:50:42.574Z,9.60
2019-01-13T07:53:09.976Z,12.27
2019-01-13T07:55:37.714Z,11.90
2019-01-13T07:58:05.123Z,14.50
2019-01-13T08:00:33.923Z,11.70
2019-01-13T08:03:03.234Z,10.40
2019-01-13T08:05:30.639Z,12.70
2019-01-13T08:07:58.040Z,8.70
2019-01-13T08:10:25.581Z,6.23
2019-01-13T08:12:52.995Z,10.97
2019-01-13T08:15:20.785Z,16.40
2019-01-13T08:17:49.206Z,9.27
2019-01-13T08:20:28.271Z,9.70
2019-01-13T08:22:55.669Z,10.53
2019-01-13T08:25:23.527Z,9.23
2019-01-13T08:27:51.125Z,15.17
2019-01-13T08:30:18.950Z,9.83
2019-01-13T08:32:46.392Z,8.77
2019-01-13T08:35:14.126Z,8.73
2019-01-13T08:37:41.533Z,8.73
2019-01-13T08:40:12.247Z,11.00
2019-01-13T08:42:40.223Z,9.60
2019-01-13T08:45:08.301Z,7.43
2019-01-13T08:47:35.711Z,12.27
2019-01-13T08:50:04.933Z,13.80
2019-01-13T08:52:32.335Z,12.03
2019-01-13T08:54:59.855Z,21.83
2019-01-13T08:57:27.366Z,20.00
2019-01-13T08:59:54.754Z,18.23
2019-01-13T09:02:22.180Z,19.30
2019-01-13T09:04:49.807Z,16.57
2019-01-13T09:07:17.209Z,20.37
2019-01-13T09:09:44.612Z,15.80
2019-01-13T09:12:12.099Z,16.47
2019-01-13T09:14:39.579Z,23.40
2019-01-13T09:17:06.938Z,12.23
2019-01-13T09:19:34.759Z,15.20
2019-01-13T09:22:03.579Z,9.80
2019-01-13T09:24:31.029Z,12.27
2019-01-13T09:26:58.444Z,11.53
2019-01-13T09:29:25.856Z,17.57
2019-01-13T09:31:53.240Z,19.43
2019-01-13T09:34:20.677Z,17.93
2019-01-13T09:36:48.079Z,16.83
2019-01-13T09:39:15.492Z,15.10
2019-01-13T09:41:43.073Z,16.00
2019-01-13T09:44:10.489Z,17.33
2019-01-13T09:46:37.903Z,13.70
2019-01-13T09:49:05.406Z,17.13
2019-01-13T09:51:32.997Z,16.43
2019-01-13T09:54:00.402Z,15.40
2019-01-13T09:56:28.157Z,12.00
2019-01-13T09:58:55.781Z,28.00
2019-01-13T10:01:23.230Z,21.30
2019-01-13T10:03:50.856Z,22.57
2019-01-13T10:06:18.343Z,24.00
2019-01-13T10:08:45.902Z,15.00
2019-01-13T10:11:13.461Z,18.43
2019-01-13T10:13:40.871Z,28.57
2019-01-13T10:16:08.294Z,21.93
2019-01-13T10:18:35.778Z,16.50
2019-01-13T10:21:03.447Z,11.57
2019-01-13T10:23:31.303Z,16.13
2019-01-13T10:25:58.732Z,19.10
2019-01-13T10:28:26.128Z,12.50
2019-01-13T10:30:53.533Z,9.57
2019-01-13T10:33:21.223Z,8.20
2019-01-13T10:35:48.686Z,11.63
2019-01-13T10:38:16.014Z,12.03
2019-01-13T10:40:46.263Z,12.97
2019-01-13T10:43:14.962Z,12.90
2019-01-13T10:45:42.462Z,12.50
2019-01-13T10:48:30.420Z,15.73
2019-01-13T10:50:58.130Z,17.80
2019-01-13T10:53:25.519Z,30.40
2019-01-13T10:55:52.984Z,19.30
2019-01-13T10:58:20.384Z,14.33
2019-01-13T11:00:47.807Z,17.90
2019-01-13T11:03:15.299Z,12.23
2019-01-13T11:05:44.859Z,17.30
2019-01-13T11:08:12.247Z,20.53
2019-01-13T11:10:39.707Z,14.43
2019-01-13T11:13:07.135Z,16.43
2019-01-13T11:15:34.541Z,16.93
2019-01-13T11:18:02.070Z,19.83
2019-01-13T11:20:34.653Z,25.20
2019-01-13T11:23:02.261Z,25.90
2019-01-13T11:25:29.949Z,19.50
2019-01-13T11:27:57.339Z,24.90
2019-01-13T11:30:25.974Z,24.20
2019-01-13T11:32:53.701Z,24.60
2019-01-13T11:35:21.206Z,25.73
2019-01-13T11:37:48.642Z,29.47
2019-01-13T11:40:18.484Z,26.90
2019-01-13T11:42:45.992Z,25.33
2019-01-13T11:45:13.534Z,17.20
2019-01-13T11:47:41.306Z,17.77
2019-01-13T11:50:11.606Z,16.63
2019-01-13T11:52:39.243Z,16.57
2019-01-13T11:55:08.904Z,21.83
2019-01-13T11:57:36.325Z,24.80
2019-01-13T12:00:07.750Z,22.50
2019-01-13T12:02:35.602Z,24.00
2019-01-13T12:05:03.910Z,18.53
2019-01-13T12:07:31.312Z,20.83
2019-01-13T12:09:58.909Z,17.60
2019-01-13T12:12:26.315Z,18.23
2019-01-13T12:14:53.724Z,23.70
2019-01-13T12:17:21.294Z,21.13
2019-01-13T12:19:48.692Z,22.77
2019-01-13T12:22:16.086Z,20.53
2019-01-13T12:24:43.686Z,18.50
2019-01-13T12:27:11.092Z,25.43
2019-01-13T12:29:38.501Z,29.60
2019-01-13T12:32:05.979Z,34.33
2019-01-13T12:34:33.397Z,23.53
2019-01-13T12:37:00.800Z,25.30
2019-01-13T12:39:28.458Z,37.43
2019-01-13T12:41:55.868Z,29.83
2019-01-13T12:44:23.280Z,34.77
2019-01-13T12:46:51.060Z,53.20
2019-01-13T12:49:18.621Z,48.43
2019-01-13T12:51:46.325Z,44.40
2019-01-13T12:54:13.771Z,23.70
2019-01-13T12:56:41.191Z,18.03
2019-01-13T12:59:08.606Z,13.60
2019-01-13T13:01:36.348Z,39.83
2019-01-13T13:04:03.763Z,30.83
2019-01-13T13:06:31.281Z,30.23
2019-01-13T13:08:58.704Z,27.37
2019-01-13T13:11:26.121Z,20.40
2019-01-13T13:13:53.527Z,23.47
2019-01-13T13:16:20.968Z,27.17
2019-01-13T13:18:48.366Z,26.80
2019-01-13T13:21:15.772Z,25.00
2019-01-13T13:23:43.261Z,18.03
2019-01-13T13:26:10.735Z,24.87
2019-01-13T13:28:38.268Z,30.93
2019-01-13T13:31:05.710Z,22.40
2019-01-13T13:33:38.744Z,22.17
2019-01-13T13:36:05.762Z,29.77
2019-01-13T13:38:33.190Z,26.03
2019-01-13T13:41:00.983Z,29.17
2019-01-13T13:43:30.971Z,20.43
2019-01-13T13:45:58.943Z,26.90
2019-01-13T13:48:26.379Z,21.03
2019-01-13T13:50:54.099Z,27.10
2019-01-13T13:53:21.955Z,22.97
2019-01-13T13:55:49.350Z,24.10
2019-01-13T13:58:16.834Z,18.93
2019-01-13T14:00:44.734Z,22.17
2019-01-13T14:03:12.154Z,15.37
2019-01-13T14:05:39.693Z,31.40
2019-01-13T14:08:07.642Z,21.60
2019-01-13T14:10:43.890Z,19.37
2019-01-13T14:13:11.673Z,22.00
2019-01-13T14:15:39.075Z,27.03
2019-01-13T14:18:06.512Z,18.93
2019-01-13T14:20:34.172Z,17.63
2019-01-13T14:23:01.574Z,20.83
2019-01-13T14:25:28.991Z,21.60
2019-01-13T14:27:56.475Z,21.43
2019-01-13T14:30:25.064Z,17.97
2019-01-13T14:32:52.483Z,27.13
2019-01-13T14:35:20.053Z,14.80
2019-01-13T14:37:48.316Z,14.77
2019-01-13T14:40:17.888Z,12.93
2019-01-13T14:42:45.516Z,20.27
2019-01-13T14:45:18.011Z,20.63
2019-01-13T14:47:45.876Z,18.90
2019-01-13T14:50:16.148Z,19.30
2019-01-13T14:52:43.769Z,25.53
2019-01-13T14:55:11.999Z,22.70
2019-01-13T14:57:39.422Z,21.70
2019-01-13T15:00:11.582Z,13.70
2019-01-13T15:02:39.146Z,19.93
2019-01-13T15:05:08.634Z,22.90
2019-01-13T15:07:36.038Z,14.00
2019-01-13T15:10:04.799Z,13.97
2019-01-13T15:12:32.251Z,9.60
2019-01-13T15:14:59.668Z,7.97
2019-01-13T15:17:27.095Z,8.30
2019-01-13T15:19:54.639Z,15.50
2019-01-13T15:22:22.074Z,11.03
2019-01-13T15:24:49.492Z,11.53
2019-01-13T15:27:16.927Z,8.47
2019-01-13T15:29:44.387Z,9.80
2019-01-13T15:32:13.139Z,9.70
2019-01-13T15:34:40.636Z,9.63
2019-01-13T15:37:08.059Z,6.40
2019-01-13T15:39:35.506Z,12.43
2019-01-13T15:42:03.158Z,7.93
2019-01-13T15:44:30.563Z,6.50
2019-01-13T15:46:57.983Z,7.00
2019-01-13T15:49:25.427Z,12.70
2019-01-13T15:51:53.094Z,14.33
2019-01-13T15:54:20.793Z,17.17
2019-01-13T15:56:48.845Z,19.47
2019-01-13T15:59:17.578Z,17.87
2019-01-13T16:01:44.995Z,16.33
2019-01-13T16:04:14.808Z,20.47
2019-01-13T16:06:41.647Z,20.63
2019-01-13T16:09:09.046Z,24.50
2019-01-13T16:11:36.855Z,19.27
2019-01-13T16:14:04.263Z,19.23
2019-01-13T16:16:33.500Z,14.30
2019-01-13T16:19:00.939Z,10.37
2019-01-13T16:21:28.507Z,11.77
2019-01-13T16:23:55.919Z,8.30
2019-01-13T16:26:23.486Z,11.20
2019-01-13T16:32:37.358Z,9.33
2019-01-13T16:35:05.003Z,13.50
2019-01-13T16:37:32.405Z,16.43
2019-01-13T16:40:00.014Z,21.07
2019-01-13T16:42:27.435Z,19.50
2019-01-13T16:44:54.846Z,18.93
2019-01-13T16:47:24.253Z,25.43
2019-01-13T16:49:51.531Z,20.10
2019-01-13T16:52:19.282Z,13.20
2019-01-13T16:54:47.426Z,12.03
2019-01-13T16:57:14.839Z,9.13
2019-01-13T16:59:42.243Z,8.43
2019-01-13T17:02:10.232Z,8.90
2019-01-13T17:04:37.620Z,6.33
2019-01-13T17:07:05.115Z,6.13
2019-01-13T17:09:32.604Z,7.37
2019-01-13T17:12:00.027Z,12.43
2019-01-13T17:14:27.427Z,9.93
2019-01-13T17:16:54.884Z,6.03
2019-01-13T17:19:22.292Z,12.70
2019-01-13T17:21:49.686Z,10.07
2019-01-13T17:24:17.299Z,11.47
2019-01-13T17:26:44.709Z,8.77
2019-01-13T17:29:12.091Z,10.47
2019-01-13T17:31:39.550Z,11.53
2019-01-13T17:34:06.959Z,7.80
2019-01-13T17:36:34.367Z,11.60
2019-01-13T17:39:02.061Z,10.10
2019-01-13T17:41:29.476Z,9.67
2019-01-13T17:43:56.872Z,9.23
2019-01-13T17:51:41.863Z,11.47
2019-01-13T17:54:10.386Z,10.80
2019-01-13T17:56:38.264Z,6.37
2019-01-13T17:59:05.822Z,6.23
2019-01-13T18:01:43.430Z,7.43
2019-01-13T18:04:11.101Z,13.40
2019-01-13T18:06:39.018Z,16.60
2019-01-13T18:09:07.968Z,20.03
2019-01-13T18:11:35.680Z,10.77
2019-01-13T18:14:04.847Z,11.13
2019-01-13T18:16:32.439Z,10.90
2019-01-13T18:19:00.436Z,12.00
2019-01-13T18:21:27.980Z,11.50
2019-01-13T18:23:55.426Z,13.80
2019-01-13T18:26:22.995Z,7.83
2019-01-13T18:28:50.562Z,7.20
2019-01-13T18:31:17.938Z,6.83
2019-01-13T18:33:46.018Z,5.47
2019-01-13T18:36:13.586Z,8.00
2019-01-13T18:38:41.085Z,9.03
2019-01-13T18:41:08.700Z,6.03
2019-01-13T18:43:36.233Z,11.57
2019-01-13T18:46:03.927Z,10.10
2019-01-13T18:48:31.711Z,7.93
2019-01-13T18:50:59.352Z,11.20
2019-01-13T18:53:27.154Z,6.07
2019-01-13T18:55:54.631Z,8.80
2019-01-13T18:58:22.184Z,6.13
2019-01-13T19:00:49.685Z,6.53
2019-01-13T19:03:17.358Z,8.33
2019-01-13T19:05:44.759Z,6.83
2019-01-13T19:08:12.161Z,7.70
2019-01-13T19:10:55.539Z,9.30
2019-01-13T19:13:55.005Z,12.83
2019-01-13T19:16:22.983Z,7.80
2019-01-13T19:18:50.886Z,11.47
2019-01-13T19:21:18.319Z,6.17
2019-01-13T19:23:45.765Z,9.53
2019-01-13T19:26:13.064Z,9.80
2019-01-13T19:28:40.457Z,8.83
2019-01-13T19:31:08.159Z,10.40
2019-01-13T19:33:35.557Z,6.53
2019-01-13T19:36:03.152Z,11.67
2019-01-13T19:38:30.599Z,11.90
2019-01-13T19:40:58.097Z,12.23
2019-01-13T19:43:25.504Z,12.20
2019-01-13T19:45:52.949Z,9.70
2019-01-13T19:48:20.351Z,18.33
2019-01-13T19:50:47.820Z,12.20
2019-01-13T19:53:15.730Z,6.87
2019-01-13T19:55:43.124Z,13.00
2019-01-13T19:58:10.531Z,15.53
2019-01-13T20:00:39.891Z,15.47
2019-01-13T20:03:07.090Z,14.47
2019-01-13T20:05:34.636Z,17.17
2019-01-13T20:08:02.073Z,11.97
2019-01-13T20:10:29.463Z,21.13
2019-01-13T20:12:56.873Z,25.03
2019-01-13T20:15:24.299Z,21.50
2019-01-13T20:17:51.695Z,19.57
2019-01-13T20:20:19.332Z,18.63
2019-01-13T20:22:47.418Z,29.17
2019-01-13T20:25:15.004Z,24.23
2019-01-13T20:27:42.946Z,26.87
2019-01-13T20:30:14.204Z,21.60
2019-01-13T20:32:43.998Z,26.90
2019-01-13T20:35:11.543Z,19.73
2019-01-13T20:37:39.065Z,8.10
2019-01-13T20:40:08.051Z,15.83
2019-01-13T20:42:35.627Z,16.10
2019-01-13T20:45:05.092Z,9.40
2019-01-13T20:47:32.558Z,21.13
2019-01-13T20:49:59.973Z,17.50
2019-01-13T20:52:27.711Z,14.53
2019-01-13T20:54:55.919Z,14.40
2019-01-13T20:57:23.324Z,10.70
2019-01-13T20:59:50.787Z,12.33
2019-01-13T21:02:18.319Z,11.00
2019-01-13T21:04:45.768Z,9.17
2019-01-13T21:07:13.327Z,9.67
2019-01-13T21:09:40.750Z,9.93
2019-01-13T21:12:08.330Z,6.27
2019-01-13T21:14:36.604Z,8.23
2019-01-13T21:17:04.102Z,8.97
2019-01-13T21:19:31.515Z,6.93
2019-01-13T21:21:59.210Z,4.37
2019-01-13T21:24:26.657Z,3.50
2019-01-13T21:26:55.385Z,3.77
2019-01-13T21:29:23.131Z,4.43
2019-01-13T21:31:51.010Z,5.10
2019-01-13T21:34:18.418Z,3.97
2019-01-13T21:36:45.890Z,4.20
2019-01-13T21:39:13.395Z,3.60
2019-01-13T21:41:40.861Z,3.33
2019-01-13T21:44:08.331Z,2.97
2019-01-13T21:46:35.851Z,4.13
2019-01-13T21:49:03.359Z,7.43
2019-01-13T21:51:30.835Z,4.20
2019-01-13T21:53:58.678Z,2.43
2019-01-13T21:56:26.071Z,2.97
2019-01-13T21:58:53.531Z,11.57
2019-01-13T22:01:20.923Z,4.37
2019-01-13T22:03:48.319Z,3.90
2019-01-13T22:06:15.765Z,2.40
2019-01-13T22:08:43.154Z,2.70
2019-01-13T22:11:10.547Z,3.80
2019-01-13T22:13:38.142Z,4.80
2019-01-13T22:16:05.543Z,2.90
2019-01-13T22:18:32.956Z,3.07
2019-01-13T22:21:00.316Z,3.50
2019-01-13T22:23:27.707Z,2.57
2019-01-13T22:25:55.103Z,2.93
2019-01-13T22:28:22.707Z,3.40
2019-01-13T22:30:50.275Z,3.17
2019-01-13T22:33:17.667Z,4.00
2019-01-13T22:35:48.284Z,4.33
2019-01-13T22:38:14.921Z,6.93
2019-01-13T22:40:42.475Z,4.20
2019-01-13T22:43:09.907Z,3.77
2019-01-13T22:45:37.296Z,3.37
2019-01-13T22:48:04.689Z,2.30
2019-01-13T22:50:32.123Z,2.23
2019-01-13T22:52:59.801Z,3.73
2019-01-13T22:55:27.691Z,4.00
2019-01-13T22:57:55.123Z,4.97
2019-01-13T23:00:50.403Z,3.13
2019-01-13T23:03:17.980Z,2.10
2019-01-13T23:05:46.509Z,2.40
2019-01-13T23:08:13.902Z,1.60
2019-01-13T23:10:41.382Z,1.10
2019-01-13T23:13:08.782Z,0.60
2019-01-13T23:15:36.179Z,0.70
2019-01-13T23:18:03.988Z,0.90
2019-01-13T23:20:31.375Z,1.10
2019-01-13T23:22:58.763Z,0.90
2019-01-13T23:25:26.372Z,0.60
2019-01-13T23:27:53.777Z,0.77
2019-01-13T23:30:22.845Z,2.27
2019-01-13T23:32:50.198Z,0.80
2019-01-13T23:35:17.588Z,1.63
2019-01-13T23:37:44.979Z,3.60
2019-01-13T23:40:12.883Z,0.70
2019-01-13T23:42:40.291Z,0.70
2019-01-13T23:45:07.897Z,2.70
2019-01-13T23:47:35.317Z,0.70
2019-01-13T23:50:04.313Z,0.70
2019-01-13T23:52:32.043Z,0.70
2019-01-13T23:54:59.907Z,0.80
2019-01-13T23:57:27.305Z,0.70
2019-01-13T23:59:54.701Z,0.70
